sensor_id;sensor_type;location;lat;lon;timestamp;P1;durP1;ratioP1;P2;durP2;ratioP2
13718;SDS011;6931;51.100;17.068;2024-02-26T00:00:27;39.15;;;22.30;;
13718;SDS011;6931;51.100;17.068;2024-02-26T00:02:55;36.92;;;22.45;;
13718;SDS011;6931;51.100;17.068;2024-02-26T00:05:22;36.38;;;23.10;;
13718;SDS011;6931;51.100;17.068;2024-02-26T00:07:49;37.05;;;22.80;;
13718;SDS011;6931;51.100;17.068;2024-02-26T00:10:16;35.78;;;22.60;;
13718;SDS011;6931;51.100;17.068;2024-02-26T00:12:42;36.00;;;23.17;;
13718;SDS011;6931;51.100;17.068;2024-02-26T00:15:09;35.05;;;22.48;;
13718;SDS011;6931;51.100;17.068;2024-02-26T00:17:36;38.05;;;22.35;;
13718;SDS011;6931;51.100;17.068;2024-02-26T00:20:04;34.05;;;21.60;;
13718;SDS011;6931;51.100;17.068;2024-02-26T00:22:34;36.92;;;23.17;;
13718;SDS011;6931;51.100;17.068;2024-02-26T00:25:01;33.80;;;21.60;;
13718;SDS011;6931;51.100;17.068;2024-02-26T00:27:28;34.42;;;21.80;;
13718;SDS011;6931;51.100;17.068;2024-02-26T00:29:54;35.20;;;22.33;;
13718;SDS011;6931;51.100;17.068;2024-02-26T00:32:21;33.03;;;20.70;;
13718;SDS011;6931;51.100;17.068;2024-02-26T00:34:47;36.85;;;21.27;;
13718;SDS011;6931;51.100;17.068;2024-02-26T00:37:14;33.30;;;21.50;;
13718;SDS011;6931;51.100;17.068;2024-02-26T00:39:41;30.80;;;21.63;;
13718;SDS011;6931;51.100;17.068;2024-02-26T00:42:07;33.30;;;21.33;;
13718;SDS011;6931;51.100;17.068;2024-02-26T00:44:34;36.17;;;23.50;;
13718;SDS011;6931;51.100;17.068;2024-02-26T00:47:01;39.17;;;24.52;;
13718;SDS011;6931;51.100;17.068;2024-02-26T00:49:28;38.28;;;23.83;;
13718;SDS011;6931;51.100;17.068;2024-02-26T00:51:55;35.95;;;23.58;;
13718;SDS011;6931;51.100;17.068;2024-02-26T00:54:22;38.55;;;23.50;;
13718;SDS011;6931;51.100;17.068;2024-02-26T00:56:49;35.78;;;24.17;;
13718;SDS011;6931;51.100;17.068;2024-02-26T00:59:15;35.97;;;21.73;;
13718;SDS011;6931;51.100;17.068;2024-02-26T01:01:42;35.15;;;22.23;;
13718;SDS011;6931;51.100;17.068;2024-02-26T01:04:08;34.20;;;22.95;;
13718;SDS011;6931;51.100;17.068;2024-02-26T01:06:35;36.28;;;21.80;;
13718;SDS011;6931;51.100;17.068;2024-02-26T01:09:02;31.27;;;19.73;;
13718;SDS011;6931;51.100;17.068;2024-02-26T01:11:29;32.28;;;21.08;;
13718;SDS011;6931;51.100;17.068;2024-02-26T01:13:56;34.17;;;21.55;;
13718;SDS011;6931;51.100;17.068;2024-02-26T01:16:23;31.00;;;20.15;;
13718;SDS011;6931;51.100;17.068;2024-02-26T01:18:50;29.02;;;19.67;;
13718;SDS011;6931;51.100;17.068;2024-02-26T01:21:16;32.28;;;20.10;;
13718;SDS011;6931;51.100;17.068;2024-02-26T01:23:43;31.52;;;19.33;;
13718;SDS011;6931;51.100;17.068;2024-02-26T01:26:12;32.40;;;19.73;;
13718;SDS011;6931;51.100;17.068;2024-02-26T01:28:39;31.27;;;20.52;;
13718;SDS011;6931;51.100;17.068;2024-02-26T01:31:06;33.03;;;19.27;;
13718;SDS011;6931;51.100;17.068;2024-02-26T01:33:34;36.90;;;20.50;;
13718;SDS011;6931;51.100;17.068;2024-02-26T01:36:01;32.92;;;20.42;;
13718;SDS011;6931;51.100;17.068;2024-02-26T01:38:28;34.28;;;20.10;;
13718;SDS011;6931;51.100;17.068;2024-02-26T01:40:54;28.48;;;19.73;;
13718;SDS011;6931;51.100;17.068;2024-02-26T01:43:21;29.08;;;19.13;;
13718;SDS011;6931;51.100;17.068;2024-02-26T01:45:48;30.77;;;18.85;;
13718;SDS011;6931;51.100;17.068;2024-02-26T01:48:14;29.85;;;18.38;;
13718;SDS011;6931;51.100;17.068;2024-02-26T01:50:41;30.63;;;18.45;;
13718;SDS011;6931;51.100;17.068;2024-02-26T01:53:08;33.33;;;19.38;;
13718;SDS011;6931;51.100;17.068;2024-02-26T01:55:36;30.30;;;18.80;;
13718;SDS011;6931;51.100;17.068;2024-02-26T01:58:04;34.53;;;19.02;;
13718;SDS011;6931;51.100;17.068;2024-02-26T02:00:31;29.85;;;18.23;;
13718;SDS011;6931;51.100;17.068;2024-02-26T02:02:58;29.35;;;18.35;;
13718;SDS011;6931;51.100;17.068;2024-02-26T02:05:25;29.92;;;18.67;;
13718;SDS011;6931;51.100;17.068;2024-02-26T02:07:52;28.73;;;18.77;;
13718;SDS011;6931;51.100;17.068;2024-02-26T02:10:19;29.67;;;18.35;;
13718;SDS011;6931;51.100;17.068;2024-02-26T02:12:51;30.73;;;18.20;;
13718;SDS011;6931;51.100;17.068;2024-02-26T02:15:18;35.40;;;19.58;;
13718;SDS011;6931;51.100;17.068;2024-02-26T02:17:45;33.55;;;19.48;;
13718;SDS011;6931;51.100;17.068;2024-02-26T02:20:15;28.52;;;18.35;;
13718;SDS011;6931;51.100;17.068;2024-02-26T02:22:44;30.50;;;18.60;;
13718;SDS011;6931;51.100;17.068;2024-02-26T02:25:12;31.25;;;18.55;;
13718;SDS011;6931;51.100;17.068;2024-02-26T02:27:39;27.38;;;17.98;;
13718;SDS011;6931;51.100;17.068;2024-02-26T02:30:06;29.95;;;18.65;;
13718;SDS011;6931;51.100;17.068;2024-02-26T02:32:35;26.30;;;17.73;;
13718;SDS011;6931;51.100;17.068;2024-02-26T02:35:07;33.83;;;18.73;;
13718;SDS011;6931;51.100;17.068;2024-02-26T02:37:33;26.20;;;17.27;;
13718;SDS011;6931;51.100;17.068;2024-02-26T02:40:00;28.63;;;17.70;;
13718;SDS011;6931;51.100;17.068;2024-02-26T02:42:27;31.63;;;18.83;;
13718;SDS011;6931;51.100;17.068;2024-02-26T02:44:54;36.78;;;19.48;;
13718;SDS011;6931;51.100;17.068;2024-02-26T02:47:20;27.40;;;17.77;;
13718;SDS011;6931;51.100;17.068;2024-02-26T02:49:47;25.70;;;17.25;;
13718;SDS011;6931;51.100;17.068;2024-02-26T02:52:13;29.98;;;18.48;;
13718;SDS011;6931;51.100;17.068;2024-02-26T02:54:40;28.52;;;16.73;;
13718;SDS011;6931;51.100;17.068;2024-02-26T02:57:08;26.58;;;17.42;;
13718;SDS011;6931;51.100;17.068;2024-02-26T02:59:36;28.17;;;18.90;;
13718;SDS011;6931;51.100;17.068;2024-02-26T03:02:03;30.15;;;17.77;;
13718;SDS011;6931;51.100;17.068;2024-02-26T03:04:30;24.77;;;16.63;;
13718;SDS011;6931;51.100;17.068;2024-02-26T03:06:58;27.20;;;18.05;;
13718;SDS011;6931;51.100;17.068;2024-02-26T03:09:24;29.35;;;17.85;;
13718;SDS011;6931;51.100;17.068;2024-02-26T03:11:51;32.30;;;18.30;;
13718;SDS011;6931;51.100;17.068;2024-02-26T03:14:18;26.67;;;17.30;;
13718;SDS011;6931;51.100;17.068;2024-02-26T03:16:45;28.92;;;16.55;;
13718;SDS011;6931;51.100;17.068;2024-02-26T03:19:14;25.25;;;16.10;;
13718;SDS011;6931;51.100;17.068;2024-02-26T03:21:42;27.67;;;16.27;;
13718;SDS011;6931;51.100;17.068;2024-02-26T03:24:09;26.92;;;16.45;;
13718;SDS011;6931;51.100;17.068;2024-02-26T03:26:36;23.08;;;15.82;;
13718;SDS011;6931;51.100;17.068;2024-02-26T03:29:03;26.55;;;16.80;;
13718;SDS011;6931;51.100;17.068;2024-02-26T03:31:31;26.98;;;16.50;;
13718;SDS011;6931;51.100;17.068;2024-02-26T03:33:58;25.58;;;17.08;;
13718;SDS011;6931;51.100;17.068;2024-02-26T03:36:25;27.38;;;16.45;;
13718;SDS011;6931;51.100;17.068;2024-02-26T03:38:52;29.88;;;17.65;;
13718;SDS011;6931;51.100;17.068;2024-02-26T03:41:19;25.90;;;15.90;;
13718;SDS011;6931;51.100;17.068;2024-02-26T03:43:45;25.60;;;16.48;;
13718;SDS011;6931;51.100;17.068;2024-02-26T03:46:12;25.00;;;17.05;;
13718;SDS011;6931;51.100;17.068;2024-02-26T03:48:40;28.05;;;15.80;;
13718;SDS011;6931;51.100;17.068;2024-02-26T03:51:10;27.25;;;16.70;;
13718;SDS011;6931;51.100;17.068;2024-02-26T03:53:37;25.95;;;16.33;;
13718;SDS011;6931;51.100;17.068;2024-02-26T03:56:04;26.10;;;15.48;;
13718;SDS011;6931;51.100;17.068;2024-02-26T03:58:31;22.92;;;15.75;;
13718;SDS011;6931;51.100;17.068;2024-02-26T04:00:59;25.38;;;15.43;;
13718;SDS011;6931;51.100;17.068;2024-02-26T04:03:26;24.73;;;16.35;;
13718;SDS011;6931;51.100;17.068;2024-02-26T04:05:53;23.77;;;15.80;;
13718;SDS011;6931;51.100;17.068;2024-02-26T04:08:19;29.10;;;16.35;;
13718;SDS011;6931;51.100;17.068;2024-02-26T04:10:46;25.27;;;16.60;;
13718;SDS011;6931;51.100;17.068;2024-02-26T04:13:13;26.92;;;17.05;;
13718;SDS011;6931;51.100;17.068;2024-02-26T04:15:39;26.70;;;17.27;;
13718;SDS011;6931;51.100;17.068;2024-02-26T04:18:06;25.15;;;16.63;;
13718;SDS011;6931;51.100;17.068;2024-02-26T04:20:33;25.60;;;15.98;;
13718;SDS011;6931;51.100;17.068;2024-02-26T04:23:00;23.50;;;15.23;;
13718;SDS011;6931;51.100;17.068;2024-02-26T04:25:27;23.55;;;14.95;;
13718;SDS011;6931;51.100;17.068;2024-02-26T04:27:55;24.55;;;15.23;;
13718;SDS011;6931;51.100;17.068;2024-02-26T04:30:21;26.88;;;15.63;;
13718;SDS011;6931;51.100;17.068;2024-02-26T04:32:48;22.25;;;15.90;;
13718;SDS011;6931;51.100;17.068;2024-02-26T04:35:15;24.90;;;15.35;;
13718;SDS011;6931;51.100;17.068;2024-02-26T04:37:41;23.50;;;15.30;;
13718;SDS011;6931;51.100;17.068;2024-02-26T04:40:08;23.17;;;14.90;;
13718;SDS011;6931;51.100;17.068;2024-02-26T04:42:35;22.75;;;14.57;;
13718;SDS011;6931;51.100;17.068;2024-02-26T04:45:01;23.95;;;14.93;;
13718;SDS011;6931;51.100;17.068;2024-02-26T04:47:28;24.92;;;15.20;;
13718;SDS011;6931;51.100;17.068;2024-02-26T04:49:56;21.42;;;14.45;;
13718;SDS011;6931;51.100;17.068;2024-02-26T04:52:23;27.10;;;14.57;;
13718;SDS011;6931;51.100;17.068;2024-02-26T04:54:49;30.25;;;14.98;;
13718;SDS011;6931;51.100;17.068;2024-02-26T04:57:16;24.75;;;15.48;;
13718;SDS011;6931;51.100;17.068;2024-02-26T04:59:44;22.52;;;14.68;;
13718;SDS011;6931;51.100;17.068;2024-02-26T05:02:12;25.10;;;15.15;;
13718;SDS011;6931;51.100;17.068;2024-02-26T05:04:39;22.73;;;14.68;;
13718;SDS011;6931;51.100;17.068;2024-02-26T05:07:07;24.65;;;14.85;;
13718;SDS011;6931;51.100;17.068;2024-02-26T05:09:34;23.23;;;14.23;;
13718;SDS011;6931;51.100;17.068;2024-02-26T05:12:01;23.27;;;15.48;;
13718;SDS011;6931;51.100;17.068;2024-02-26T05:14:28;19.48;;;14.07;;
13718;SDS011;6931;51.100;17.068;2024-02-26T05:16:54;26.83;;;14.52;;
13718;SDS011;6931;51.100;17.068;2024-02-26T05:19:22;23.85;;;14.25;;
13718;SDS011;6931;51.100;17.068;2024-02-26T05:21:49;25.92;;;14.73;;
13718;SDS011;6931;51.100;17.068;2024-02-26T05:24:16;22.75;;;15.10;;
13718;SDS011;6931;51.100;17.068;2024-02-26T05:26:45;22.23;;;14.50;;
13718;SDS011;6931;51.100;17.068;2024-02-26T05:29:12;23.83;;;15.13;;
13718;SDS011;6931;51.100;17.068;2024-02-26T05:31:38;28.35;;;14.82;;
13718;SDS011;6931;51.100;17.068;2024-02-26T05:34:06;24.48;;;13.70;;
13718;SDS011;6931;51.100;17.068;2024-02-26T05:36:33;24.58;;;15.90;;
13718;SDS011;6931;51.100;17.068;2024-02-26T05:39:00;24.45;;;14.90;;
13718;SDS011;6931;51.100;17.068;2024-02-26T05:41:27;23.08;;;15.43;;
13718;SDS011;6931;51.100;17.068;2024-02-26T05:43:54;24.70;;;15.45;;
13718;SDS011;6931;51.100;17.068;2024-02-26T05:46:21;25.65;;;15.88;;
13718;SDS011;6931;51.100;17.068;2024-02-26T05:48:50;21.23;;;14.77;;
13718;SDS011;6931;51.100;17.068;2024-02-26T05:51:18;22.70;;;14.63;;
13718;SDS011;6931;51.100;17.068;2024-02-26T05:53:44;22.40;;;14.30;;
13718;SDS011;6931;51.100;17.068;2024-02-26T05:56:13;21.85;;;14.90;;
13718;SDS011;6931;51.100;17.068;2024-02-26T05:58:39;21.90;;;13.68;;
13718;SDS011;6931;51.100;17.068;2024-02-26T06:01:06;26.65;;;15.30;;
13718;SDS011;6931;51.100;17.068;2024-02-26T06:03:32;23.15;;;14.82;;
13718;SDS011;6931;51.100;17.068;2024-02-26T06:05:59;22.75;;;15.18;;
13718;SDS011;6931;51.100;17.068;2024-02-26T06:08:26;24.73;;;15.80;;
13718;SDS011;6931;51.100;17.068;2024-02-26T06:10:53;24.60;;;15.32;;
13718;SDS011;6931;51.100;17.068;2024-02-26T06:13:19;25.13;;;14.95;;
13718;SDS011;6931;51.100;17.068;2024-02-26T06:15:46;25.95;;;15.32;;
13718;SDS011;6931;51.100;17.068;2024-02-26T06:18:13;33.35;;;17.33;;
13718;SDS011;6931;51.100;17.068;2024-02-26T06:20:40;22.50;;;14.38;;
13718;SDS011;6931;51.100;17.068;2024-02-26T06:23:06;28.95;;;15.45;;
13718;SDS011;6931;51.100;17.068;2024-02-26T06:25:33;26.92;;;14.80;;
13718;SDS011;6931;51.100;17.068;2024-02-26T06:28:00;30.90;;;16.20;;
13718;SDS011;6931;51.100;17.068;2024-02-26T06:30:26;23.58;;;14.98;;
13718;SDS011;6931;51.100;17.068;2024-02-26T06:32:53;23.73;;;14.82;;
13718;SDS011;6931;51.100;17.068;2024-02-26T06:35:20;24.40;;;15.02;;
13718;SDS011;6931;51.100;17.068;2024-02-26T06:37:46;22.70;;;15.55;;
13718;SDS011;6931;51.100;17.068;2024-02-26T06:40:13;23.58;;;15.85;;
13718;SDS011;6931;51.100;17.068;2024-02-26T06:42:40;23.00;;;15.15;;
13718;SDS011;6931;51.100;17.068;2024-02-26T06:45:06;29.45;;;15.77;;
13718;SDS011;6931;51.100;17.068;2024-02-26T06:47:34;25.13;;;17.00;;
13718;SDS011;6931;51.100;17.068;2024-02-26T06:50:00;30.83;;;17.60;;
13718;SDS011;6931;51.100;17.068;2024-02-26T06:52:27;28.70;;;16.65;;
13718;SDS011;6931;51.100;17.068;2024-02-26T06:54:54;30.70;;;18.23;;
13718;SDS011;6931;51.100;17.068;2024-02-26T06:57:21;27.80;;;18.48;;
13718;SDS011;6931;51.100;17.068;2024-02-26T06:59:47;24.88;;;16.92;;
13718;SDS011;6931;51.100;17.068;2024-02-26T07:02:14;30.58;;;19.38;;
13718;SDS011;6931;51.100;17.068;2024-02-26T07:04:42;42.78;;;22.58;;
13718;SDS011;6931;51.100;17.068;2024-02-26T07:07:09;34.47;;;21.40;;
13718;SDS011;6931;51.100;17.068;2024-02-26T07:09:37;39.30;;;21.00;;
13718;SDS011;6931;51.100;17.068;2024-02-26T07:12:03;36.28;;;21.38;;
13718;SDS011;6931;51.100;17.068;2024-02-26T07:14:30;38.25;;;22.25;;
13718;SDS011;6931;51.100;17.068;2024-02-26T07:16:57;32.65;;;21.17;;
13718;SDS011;6931;51.100;17.068;2024-02-26T07:19:24;26.42;;;19.60;;
13718;SDS011;6931;51.100;17.068;2024-02-26T07:21:51;29.80;;;20.42;;
13718;SDS011;6931;51.100;17.068;2024-02-26T07:24:18;26.27;;;20.00;;
13718;SDS011;6931;51.100;17.068;2024-02-26T07:26:44;26.20;;;19.02;;
13718;SDS011;6931;51.100;17.068;2024-02-26T07:29:11;24.48;;;19.58;;
13718;SDS011;6931;51.100;17.068;2024-02-26T07:31:38;26.95;;;18.60;;
13718;SDS011;6931;51.100;17.068;2024-02-26T07:34:04;26.90;;;19.50;;
13718;SDS011;6931;51.100;17.068;2024-02-26T07:36:31;46.72;;;32.75;;
13718;SDS011;6931;51.100;17.068;2024-02-26T07:38:58;50.28;;;35.83;;
13718;SDS011;6931;51.100;17.068;2024-02-26T07:41:25;44.55;;;33.42;;
13718;SDS011;6931;51.100;17.068;2024-02-26T07:43:52;33.13;;;26.27;;
13718;SDS011;6931;51.100;17.068;2024-02-26T07:46:18;44.75;;;30.48;;
13718;SDS011;6931;51.100;17.068;2024-02-26T07:48:45;33.97;;;26.52;;
13718;SDS011;6931;51.100;17.068;2024-02-26T07:51:12;34.95;;;28.13;;
13718;SDS011;6931;51.100;17.068;2024-02-26T07:53:40;36.30;;;22.73;;
13718;SDS011;6931;51.100;17.068;2024-02-26T07:56:07;31.83;;;23.00;;
13718;SDS011;6931;51.100;17.068;2024-02-26T07:58:34;35.80;;;25.92;;
13718;SDS011;6931;51.100;17.068;2024-02-26T08:01:01;31.02;;;22.75;;
13718;SDS011;6931;51.100;17.068;2024-02-26T08:03:28;76.38;;;57.65;;
13718;SDS011;6931;51.100;17.068;2024-02-26T08:05:56;49.65;;;35.80;;
13718;SDS011;6931;51.100;17.068;2024-02-26T08:08:22;31.60;;;22.23;;
13718;SDS011;6931;51.100;17.068;2024-02-26T08:10:49;26.48;;;20.65;;
13718;SDS011;6931;51.100;17.068;2024-02-26T08:13:16;25.92;;;18.75;;
13718;SDS011;6931;51.100;17.068;2024-02-26T08:15:42;27.80;;;19.08;;
13718;SDS011;6931;51.100;17.068;2024-02-26T08:18:09;23.10;;;18.45;;
13718;SDS011;6931;51.100;17.068;2024-02-26T08:20:35;23.50;;;17.02;;
13718;SDS011;6931;51.100;17.068;2024-02-26T08:23:02;24.95;;;17.08;;
13718;SDS011;6931;51.100;17.068;2024-02-26T08:25:29;21.15;;;16.85;;
13718;SDS011;6931;51.100;17.068;2024-02-26T08:27:55;20.83;;;16.30;;
13718;SDS011;6931;51.100;17.068;2024-02-26T08:30:22;20.95;;;14.98;;
13718;SDS011;6931;51.100;17.068;2024-02-26T08:32:49;22.45;;;15.15;;
13718;SDS011;6931;51.100;17.068;2024-02-26T08:35:18;21.25;;;14.95;;
13718;SDS011;6931;51.100;17.068;2024-02-26T08:37:46;16.83;;;13.50;;
13718;SDS011;6931;51.100;17.068;2024-02-26T08:40:13;16.30;;;12.30;;
13718;SDS011;6931;51.100;17.068;2024-02-26T08:42:40;14.95;;;11.32;;
13718;SDS011;6931;51.100;17.068;2024-02-26T08:45:07;13.40;;;10.38;;
13718;SDS011;6931;51.100;17.068;2024-02-26T08:47:35;13.27;;;9.32;;
13718;SDS011;6931;51.100;17.068;2024-02-26T08:50:01;11.60;;;8.95;;
13718;SDS011;6931;51.100;17.068;2024-02-26T08:52:28;13.48;;;8.98;;
13718;SDS011;6931;51.100;17.068;2024-02-26T08:54:55;16.30;;;9.85;;
13718;SDS011;6931;51.100;17.068;2024-02-26T08:57:21;14.75;;;8.70;;
13718;SDS011;6931;51.100;17.068;2024-02-26T08:59:48;12.88;;;7.80;;
13718;SDS011;6931;51.100;17.068;2024-02-26T09:02:15;13.02;;;7.45;;
13718;SDS011;6931;51.100;17.068;2024-02-26T09:04:42;10.30;;;7.22;;
13718;SDS011;6931;51.100;17.068;2024-02-26T09:07:09;10.35;;;7.07;;
13718;SDS011;6931;51.100;17.068;2024-02-26T09:09:35;9.63;;;6.55;;
13718;SDS011;6931;51.100;17.068;2024-02-26T09:12:02;9.77;;;6.55;;
13718;SDS011;6931;51.100;17.068;2024-02-26T09:14:29;15.15;;;7.30;;
13718;SDS011;6931;51.100;17.068;2024-02-26T09:16:56;12.00;;;6.70;;
13718;SDS011;6931;51.100;17.068;2024-02-26T09:19:23;8.98;;;6.80;;
13718;SDS011;6931;51.100;17.068;2024-02-26T09:21:50;11.35;;;6.63;;
13718;SDS011;6931;51.100;17.068;2024-02-26T09:24:16;9.60;;;6.28;;
13718;SDS011;6931;51.100;17.068;2024-02-26T09:26:43;10.82;;;6.45;;
13718;SDS011;6931;51.100;17.068;2024-02-26T09:29:09;11.23;;;5.72;;
13718;SDS011;6931;51.100;17.068;2024-02-26T09:31:36;10.32;;;6.68;;
13718;SDS011;6931;51.100;17.068;2024-02-26T09:34:03;16.23;;;6.78;;
13718;SDS011;6931;51.100;17.068;2024-02-26T09:36:29;10.40;;;6.30;;
13718;SDS011;6931;51.100;17.068;2024-02-26T09:38:57;9.07;;;6.47;;
13718;SDS011;6931;51.100;17.068;2024-02-26T09:41:30;10.02;;;5.72;;
13718;SDS011;6931;51.100;17.068;2024-02-26T09:43:58;8.98;;;5.57;;
13718;SDS011;6931;51.100;17.068;2024-02-26T09:46:26;9.45;;;5.43;;
13718;SDS011;6931;51.100;17.068;2024-02-26T09:48:52;7.78;;;5.07;;
13718;SDS011;6931;51.100;17.068;2024-02-26T09:51:20;8.55;;;5.65;;
13718;SDS011;6931;51.100;17.068;2024-02-26T09:53:52;6.93;;;5.13;;
13718;SDS011;6931;51.100;17.068;2024-02-26T09:56:19;6.88;;;5.40;;
13718;SDS011;6931;51.100;17.068;2024-02-26T09:58:47;6.88;;;4.78;;
13718;SDS011;6931;51.100;17.068;2024-02-26T10:01:20;6.85;;;4.82;;
13718;SDS011;6931;51.100;17.068;2024-02-26T10:03:56;7.80;;;4.70;;
13718;SDS011;6931;51.100;17.068;2024-02-26T10:06:26;7.00;;;5.20;;
13718;SDS011;6931;51.100;17.068;2024-02-26T10:08:54;7.30;;;4.70;;
13718;SDS011;6931;51.100;17.068;2024-02-26T10:11:22;6.25;;;4.63;;
13718;SDS011;6931;51.100;17.068;2024-02-26T10:13:48;7.43;;;4.60;;
13718;SDS011;6931;51.100;17.068;2024-02-26T10:16:15;7.18;;;4.90;;
13718;SDS011;6931;51.100;17.068;2024-02-26T10:18:46;8.82;;;4.28;;
13718;SDS011;6931;51.100;17.068;2024-02-26T10:21:17;6.40;;;4.30;;
13718;SDS011;6931;51.100;17.068;2024-02-26T10:23:44;7.75;;;4.70;;
13718;SDS011;6931;51.100;17.068;2024-02-26T10:26:13;6.85;;;4.18;;
13718;SDS011;6931;51.100;17.068;2024-02-26T10:28:41;8.18;;;4.65;;
13718;SDS011;6931;51.100;17.068;2024-02-26T10:31:09;8.63;;;5.07;;
13718;SDS011;6931;51.100;17.068;2024-02-26T10:33:37;7.25;;;4.22;;
13718;SDS011;6931;51.100;17.068;2024-02-26T10:36:09;7.03;;;4.40;;
13718;SDS011;6931;51.100;17.068;2024-02-26T10:38:36;9.43;;;5.40;;
13718;SDS011;6931;51.100;17.068;2024-02-26T10:41:04;7.15;;;4.80;;
13718;SDS011;6931;51.100;17.068;2024-02-26T10:43:32;8.60;;;5.30;;
13718;SDS011;6931;51.100;17.068;2024-02-26T10:45:58;10.15;;;4.90;;
13718;SDS011;6931;51.100;17.068;2024-02-26T10:48:25;6.63;;;4.88;;
13718;SDS011;6931;51.100;17.068;2024-02-26T10:50:52;8.32;;;5.45;;
13718;SDS011;6931;51.100;17.068;2024-02-26T10:53:22;8.40;;;5.47;;
13718;SDS011;6931;51.100;17.068;2024-02-26T10:56:03;7.75;;;5.50;;
13718;SDS011;6931;51.100;17.068;2024-02-26T10:58:33;9.30;;;5.43;;
13718;SDS011;6931;51.100;17.068;2024-02-26T11:01:01;5.80;;;4.72;;
13718;SDS011;6931;51.100;17.068;2024-02-26T11:03:29;8.98;;;5.53;;
13718;SDS011;6931;51.100;17.068;2024-02-26T11:06:02;7.65;;;5.07;;
13718;SDS011;6931;51.100;17.068;2024-02-26T11:08:30;10.50;;;5.07;;
13718;SDS011;6931;51.100;17.068;2024-02-26T11:10:58;6.35;;;4.88;;
13718;SDS011;6931;51.100;17.068;2024-02-26T11:13:26;10.20;;;5.22;;
13718;SDS011;6931;51.100;17.068;2024-02-26T11:15:57;8.07;;;5.15;;
13718;SDS011;6931;51.100;17.068;2024-02-26T11:18:26;6.93;;;4.72;;
13718;SDS011;6931;51.100;17.068;2024-02-26T11:20:54;8.70;;;5.03;;
13718;SDS011;6931;51.100;17.068;2024-02-26T11:23:23;7.00;;;5.03;;
13718;SDS011;6931;51.100;17.068;2024-02-26T11:25:50;10.80;;;4.03;;
13718;SDS011;6931;51.100;17.068;2024-02-26T11:28:20;9.13;;;4.97;;
13718;SDS011;6931;51.100;17.068;2024-02-26T11:30:50;7.43;;;4.22;;
13718;SDS011;6931;51.100;17.068;2024-02-26T11:33:18;6.93;;;3.80;;
13718;SDS011;6931;51.100;17.068;2024-02-26T11:35:46;6.82;;;4.60;;
13718;SDS011;6931;51.100;17.068;2024-02-26T11:38:17;4.68;;;3.03;;
13718;SDS011;6931;51.100;17.068;2024-02-26T11:40:47;4.60;;;3.30;;
13718;SDS011;6931;51.100;17.068;2024-02-26T11:43:14;5.10;;;2.70;;
13718;SDS011;6931;51.100;17.068;2024-02-26T11:48:13;3.50;;;2.65;;
13718;SDS011;6931;51.100;17.068;2024-02-26T11:50:42;4.15;;;2.50;;
13718;SDS011;6931;51.100;17.068;2024-02-26T11:56:12;4.45;;;2.70;;
13718;SDS011;6931;51.100;17.068;2024-02-26T11:58:39;2.92;;;2.20;;
13718;SDS011;6931;51.100;17.068;2024-02-26T12:04:16;3.40;;;2.47;;
13718;SDS011;6931;51.100;17.068;2024-02-26T12:12:07;4.30;;;2.45;;
13718;SDS011;6931;51.100;17.068;2024-02-26T12:14:38;4.03;;;2.53;;
13718;SDS011;6931;51.100;17.068;2024-02-26T12:17:07;3.40;;;2.53;;
13718;SDS011;6931;51.100;17.068;2024-02-26T12:19:46;4.82;;;2.38;;
13718;SDS011;6931;51.100;17.068;2024-02-26T12:22:13;4.85;;;2.40;;
13718;SDS011;6931;51.100;17.068;2024-02-26T12:24:42;4.13;;;2.33;;
13718;SDS011;6931;51.100;17.068;2024-02-26T12:27:09;6.15;;;2.60;;
13718;SDS011;6931;51.100;17.068;2024-02-26T12:29:36;9.98;;;2.33;;
13718;SDS011;6931;51.100;17.068;2024-02-26T12:32:03;4.88;;;2.55;;
13718;SDS011;6931;51.100;17.068;2024-02-26T12:34:33;3.03;;;2.42;;
13718;SDS011;6931;51.100;17.068;2024-02-26T12:37:00;4.22;;;2.28;;
13718;SDS011;6931;51.100;17.068;2024-02-26T12:39:27;3.78;;;2.58;;
13718;SDS011;6931;51.100;17.068;2024-02-26T12:41:55;3.00;;;2.22;;
13718;SDS011;6931;51.100;17.068;2024-02-26T12:44:27;3.90;;;2.53;;
13718;SDS011;6931;51.100;17.068;2024-02-26T12:47:00;4.45;;;2.42;;
13718;SDS011;6931;51.100;17.068;2024-02-26T12:49:29;4.97;;;2.33;;
13718;SDS011;6931;51.100;17.068;2024-02-26T12:51:56;3.70;;;2.40;;
13718;SDS011;6931;51.100;17.068;2024-02-26T12:54:30;5.55;;;2.47;;
13718;SDS011;6931;51.100;17.068;2024-02-26T12:56:59;7.28;;;2.92;;
13718;SDS011;6931;51.100;17.068;2024-02-26T12:59:27;5.22;;;2.85;;
13718;SDS011;6931;51.100;17.068;2024-02-26T13:01:54;3.25;;;2.45;;
13718;SDS011;6931;51.100;17.068;2024-02-26T13:04:21;8.02;;;3.08;;
13718;SDS011;6931;51.100;17.068;2024-02-26T13:06:47;4.40;;;3.20;;
13718;SDS011;6931;51.100;17.068;2024-02-26T13:09:14;5.15;;;3.10;;
13718;SDS011;6931;51.100;17.068;2024-02-26T13:11:41;4.32;;;2.92;;
13718;SDS011;6931;51.100;17.068;2024-02-26T13:14:08;5.85;;;3.20;;
13718;SDS011;6931;51.100;17.068;2024-02-26T13:16:54;5.93;;;3.70;;
13718;SDS011;6931;51.100;17.068;2024-02-26T13:19:24;3.90;;;2.80;;
13718;SDS011;6931;51.100;17.068;2024-02-26T13:21:50;4.28;;;3.05;;
13718;SDS011;6931;51.100;17.068;2024-02-26T13:24:19;3.65;;;2.40;;
13718;SDS011;6931;51.100;17.068;2024-02-26T13:26:46;4.05;;;2.88;;
13718;SDS011;6931;51.100;17.068;2024-02-26T13:29:19;3.70;;;2.28;;
13718;SDS011;6931;51.100;17.068;2024-02-26T13:31:45;4.10;;;2.90;;
13718;SDS011;6931;51.100;17.068;2024-02-26T13:34:46;8.80;;;3.40;;
13718;SDS011;6931;51.100;17.068;2024-02-26T13:37:06;6.15;;;3.47;;
13718;SDS011;6931;51.100;17.068;2024-02-26T13:39:32;6.47;;;3.10;;
13718;SDS011;6931;51.100;17.068;2024-02-26T13:41:59;13.77;;;3.20;;
13718;SDS011;6931;51.100;17.068;2024-02-26T13:44:26;5.47;;;2.97;;
13718;SDS011;6931;51.100;17.068;2024-02-26T13:46:53;7.65;;;4.28;;
13718;SDS011;6931;51.100;17.068;2024-02-26T13:49:19;5.72;;;3.13;;
13718;SDS011;6931;51.100;17.068;2024-02-26T13:51:46;8.20;;;3.80;;
13718;SDS011;6931;51.100;17.068;2024-02-26T13:54:12;10.32;;;2.85;;
13718;SDS011;6931;51.100;17.068;2024-02-26T13:56:41;3.92;;;2.97;;
13718;SDS011;6931;51.100;17.068;2024-02-26T13:59:11;3.45;;;2.60;;
13718;SDS011;6931;51.100;17.068;2024-02-26T14:01:39;3.47;;;2.60;;
13718;SDS011;6931;51.100;17.068;2024-02-26T14:04:05;4.55;;;2.80;;
13718;SDS011;6931;51.100;17.068;2024-02-26T14:06:35;6.22;;;2.90;;
13718;SDS011;6931;51.100;17.068;2024-02-26T14:09:02;5.57;;;2.78;;
13718;SDS011;6931;51.100;17.068;2024-02-26T14:11:30;18.85;;;3.85;;
13718;SDS011;6931;51.100;17.068;2024-02-26T14:13:57;5.10;;;2.95;;
13718;SDS011;6931;51.100;17.068;2024-02-26T14:16:23;6.57;;;3.00;;
13718;SDS011;6931;51.100;17.068;2024-02-26T14:18:50;6.70;;;2.90;;
13718;SDS011;6931;51.100;17.068;2024-02-26T14:21:17;4.90;;;2.58;;
13718;SDS011;6931;51.100;17.068;2024-02-26T14:23:44;6.05;;;2.88;;
13718;SDS011;6931;51.100;17.068;2024-02-26T14:26:10;5.95;;;2.97;;
13718;SDS011;6931;51.100;17.068;2024-02-26T14:28:37;7.47;;;2.40;;
13718;SDS011;6931;51.100;17.068;2024-02-26T14:31:05;4.63;;;2.25;;
13718;SDS011;6931;51.100;17.068;2024-02-26T14:33:33;5.10;;;2.60;;
13718;SDS011;6931;51.100;17.068;2024-02-26T14:36:00;4.82;;;2.40;;
13718;SDS011;6931;51.100;17.068;2024-02-26T14:38:26;3.67;;;2.60;;
13718;SDS011;6931;51.100;17.068;2024-02-26T14:40:53;5.72;;;2.65;;
13718;SDS011;6931;51.100;17.068;2024-02-26T14:43:20;8.27;;;3.00;;
13718;SDS011;6931;51.100;17.068;2024-02-26T14:45:47;7.47;;;2.70;;